Time;durP1;ratioP1;P1;durP2;ratioP2;P2;SDS_P1;SDS_P2;PMS_P1;PMS_P2;Temp;Humidity;BMP_temperature;BMP_pressure;BME280_temperature;BME280_humidity;BME280_pressure;Samples;Min_cycle;Max_cycle;Signal;HPM_P1;HPM_P2
2023/10/27 00:00:41;;;;;;;33.63;15.25;;;9.20;99.90;;;;;;4970419;28;20201;-64
2023/10/27 00:03:07;;;;;;;38.30;18.13;;;9.20;99.90;;;;;;4971201;28;20027;-64
2023/10/27 00:05:33;;;;;;;30.13;13.93;;;9.20;99.90;;;;;;4971628;28;20081;-64
2023/10/27 00:07:59;;;;;;;33.95;14.10;;;9.20;99.90;;;;;;4971951;28;20038;-64
2023/10/27 00:10:25;;;;;;;35.70;17.23;;;9.20;99.90;;;;;;4969301;28;20037;-64
2023/10/27 00:12:51;;;;;;;41.50;17.38;;;9.20;99.90;;;;;;4974011;28;20030;-64
2023/10/27 00:15:17;;;;;;;40.60;17.58;;;9.10;99.90;;;;;;4971510;28;20445;-64
2023/10/27 00:17:46;;;;;;;43.05;16.63;;;9.10;99.90;;;;;;4971255;28;20030;-63
2023/10/27 00:20:12;;;;;;;39.05;16.30;;;9.10;99.90;;;;;;4972311;28;20029;-63
2023/10/27 00:22:38;;;;;;;40.63;16.63;;;9.10;99.90;;;;;;4984918;28;20068;-63
2023/10/27 00:25:04;;;;;;;33.95;14.75;;;9.10;99.90;;;;;;4971291;28;20565;-63
2023/10/27 00:27:29;;;;;;;33.78;13.88;;;9.10;99.90;;;;;;4969820;28;20034;-63
2023/10/27 00:29:55;;;;;;;32.10;14.25;;;9.10;99.90;;;;;;4971959;28;20035;-63
2023/10/27 00:32:21;;;;;;;36.20;14.55;;;9.10;99.90;;;;;;4971197;28;20049;-63
2023/10/27 00:34:46;;;;;;;38.25;15.18;;;9.00;99.90;;;;;;4971464;28;20058;-63
2023/10/27 00:37:12;;;;;;;35.38;14.32;;;9.00;99.90;;;;;;4971767;28;20039;-63
2023/10/27 00:39:41;;;;;;;40.65;15.27;;;9.00;99.90;;;;;;4970586;28;20047;-63
2023/10/27 00:42:07;;;;;;;36.47;15.05;;;9.00;99.90;;;;;;4971313;28;20085;-63
2023/10/27 00:44:32;;;;;;;36.80;14.50;;;9.00;99.90;;;;;;4970895;28;20757;-63
2023/10/27 00:46:58;;;;;;;32.30;14.10;;;9.00;99.90;;;;;;4970994;28;20054;-63
2023/10/27 00:49:25;;;;;;;31.25;13.18;;;9.10;99.90;;;;;;4971184;28;20069;-63
2023/10/27 00:51:53;;;;;;;31.75;13.30;;;9.10;99.90;;;;;;4969643;28;20034;-63
2023/10/27 00:54:20;;;;;;;28.80;13.05;;;9.10;99.90;;;;;;4970968;28;20109;-63
2023/10/27 00:56:47;;;;;;;26.98;13.07;;;9.10;99.90;;;;;;4969462;28;20082;-63
2023/10/27 00:59:14;;;;;;;26.67;12.07;;;9.00;99.90;;;;;;4967030;28;20106;-63
2023/10/27 01:01:41;;;;;;;30.38;12.63;;;8.90;99.90;;;;;;4970410;28;20023;-63
2023/10/27 01:04:07;;;;;;;26.27;12.20;;;8.80;99.90;;;;;;4967858;28;20077;-63
2023/10/27 01:06:33;;;;;;;34.08;12.55;;;8.70;99.90;;;;;;4972334;28;20537;-63
2023/10/27 01:08:59;;;;;;;31.05;14.20;;;8.50;99.90;;;;;;4973118;28;20058;-63
2023/10/27 01:11:28;;;;;;;30.10;12.20;;;8.40;99.90;;;;;;4973296;28;20026;-63
2023/10/27 01:13:54;;;;;;;31.98;14.07;;;8.30;99.90;;;;;;4973663;28;20045;-63
2023/10/27 01:16:23;;;;;;;30.65;12.40;;;8.20;99.90;;;;;;4984919;28;20118;-63
2023/10/27 01:18:49;;;;;;;45.00;15.98;;;8.00;99.90;;;;;;4972679;28;20455;-63
2023/10/27 01:21:14;;;;;;;39.53;14.20;;;8.00;99.90;;;;;;4973152;28;20102;-63
2023/10/27 01:23:40;;;;;;;41.75;16.75;;;8.00;99.90;;;;;;4969899;28;20118;-63
2023/10/27 01:26:06;;;;;;;45.17;16.25;;;7.90;99.90;;;;;;4971858;28;20015;-63
2023/10/27 01:28:31;;;;;;;41.28;15.90;;;8.00;99.90;;;;;;4972672;28;20025;-63
2023/10/27 01:30:57;;;;;;;43.33;16.30;;;8.00;99.90;;;;;;4973042;28;20051;-63
2023/10/27 01:33:23;;;;;;;38.97;16.10;;;8.00;99.90;;;;;;4972666;28;20475;-63
2023/10/27 01:35:53;;;;;;;42.38;17.20;;;7.80;99.90;;;;;;4972452;28;20129;-63
2023/10/27 01:38:19;;;;;;;47.13;17.92;;;7.70;99.90;;;;;;4972898;28;20023;-63
2023/10/27 01:40:45;;;;;;;50.38;18.52;;;7.80;99.90;;;;;;4970914;28;20031;-63
2023/10/27 01:43:10;;;;;;;43.20;17.17;;;7.80;99.90;;;;;;4972692;28;20031;-63
2023/10/27 01:45:36;;;;;;;49.83;18.02;;;7.80;99.90;;;;;;4971684;28;20059;-63
2023/10/27 01:48:01;;;;;;;49.47;17.58;;;7.90;99.90;;;;;;4972801;28;20027;-63
2023/10/27 01:50:27;;;;;;;50.83;18.08;;;7.90;99.90;;;;;;4972999;28;20041;-63
2023/10/27 01:52:53;;;;;;;46.58;18.85;;;8.10;99.90;;;;;;4975780;28;20145;-63
2023/10/27 01:55:19;;;;;;;55.00;19.50;;;8.10;99.90;;;;;;4970844;28;20648;-63
2023/10/27 01:57:47;;;;;;;47.45;17.60;;;8.10;99.90;;;;;;4967664;28;20059;-63
2023/10/27 02:00:13;;;;;;;47.55;18.40;;;8.10;99.90;;;;;;4972480;28;20498;-63
2023/10/27 02:02:38;;;;;;;45.22;18.00;;;8.10;99.90;;;;;;4971789;28;20578;-63
2023/10/27 02:05:05;;;;;;;45.53;17.52;;;8.20;99.90;;;;;;4972444;28;20034;-63
2023/10/27 02:07:31;;;;;;;42.50;16.35;;;8.30;99.90;;;;;;4971695;28;20077;-63
2023/10/27 02:10:00;;;;;;;47.50;17.58;;;8.40;99.90;;;;;;4971672;28;20105;-63
2023/10/27 02:12:26;;;;;;;45.40;16.23;;;8.30;99.90;;;;;;4970626;28;20037;-63
2023/10/27 02:14:52;;;;;;;45.95;16.65;;;8.40;99.90;;;;;;4971761;28;20077;-63
2023/10/27 02:17:18;;;;;;;41.53;15.32;;;8.40;99.90;;;;;;4971909;28;20025;-63
2023/10/27 02:19:44;;;;;;;35.70;14.82;;;8.40;99.90;;;;;;4971439;28;20019;-62
2023/10/27 02:22:09;;;;;;;43.97;15.43;;;8.60;99.90;;;;;;4971754;28;20081;-63
2023/10/27 02:24:37;;;;;;;39.90;13.60;;;8.70;99.90;;;;;;4971031;28;20177;-63
2023/10/27 02:27:03;;;;;;;41.35;15.27;;;8.70;99.90;;;;;;4970466;28;20583;-63
2023/10/27 02:29:29;;;;;;;38.80;14.38;;;8.80;99.90;;;;;;4972048;28;20026;-63
2023/10/27 02:31:55;;;;;;;36.22;13.57;;;8.80;99.90;;;;;;4971037;28;20474;-62
2023/10/27 02:34:20;;;;;;;34.80;12.27;;;8.70;99.90;;;;;;4971772;28;20030;-62
2023/10/27 02:36:46;;;;;;;34.67;13.50;;;8.80;99.90;;;;;;4970536;28;20061;-62
2023/10/27 02:39:12;;;;;;;35.45;12.77;;;8.90;99.90;;;;;;4971622;28;20073;-64
2023/10/27 02:41:37;;;;;;;35.10;13.57;;;8.90;99.90;;;;;;4971176;28;20030;-63
2023/10/27 02:44:03;;;;;;;36.70;11.85;;;8.90;99.90;;;;;;4971798;28;20055;-62
2023/10/27 02:46:29;;;;;;;27.48;11.30;;;8.90;99.90;;;;;;4971507;28;20093;-62
2023/10/27 02:48:55;;;;;;;33.30;11.45;;;9.00;99.90;;;;;;4971106;28;20053;-62
2023/10/27 02:51:21;;;;;;;30.55;12.32;;;9.00;99.90;;;;;;4972927;28;20430;-62
2023/10/27 02:53:47;;;;;;;27.25;10.93;;;9.10;99.90;;;;;;4970837;28;20031;-62
2023/10/27 02:56:13;;;;;;;31.35;10.85;;;9.10;99.90;;;;;;4969910;28;20034;-62
2023/10/27 02:58:39;;;;;;;33.97;11.90;;;9.10;99.90;;;;;;4970904;28;20085;-62
2023/10/27 03:01:11;;;;;;;28.80;10.75;;;9.20;99.90;;;;;;4971054;28;20023;-62
2023/10/27 03:03:36;;;;;;;28.80;11.20;;;9.10;99.90;;;;;;4966958;28;20037;-62
2023/10/27 03:06:03;;;;;;;34.00;11.50;;;9.10;99.90;;;;;;4971516;28;20031;-62
2023/10/27 03:08:29;;;;;;;27.25;12.05;;;9.00;99.90;;;;;;4971867;28;20057;-62
2023/10/27 03:10:54;;;;;;;35.05;11.77;;;9.00;99.90;;;;;;4971075;28;20434;-62
2023/10/27 03:13:21;;;;;;;29.30;11.57;;;9.00;99.90;;;;;;4972106;28;20475;-62
2023/10/27 03:15:46;;;;;;;31.02;10.15;;;9.00;99.90;;;;;;4969244;28;20039;-63
2023/10/27 03:18:12;;;;;;;27.63;10.77;;;9.00;99.90;;;;;;4970872;28;20062;-63
2023/10/27 03:20:40;;;;;;;25.30;9.80;;;9.00;99.90;;;;;;4970227;28;20358;-63
2023/10/27 03:23:06;;;;;;;25.10;10.50;;;9.00;99.90;;;;;;4973170;28;20121;-63
2023/10/27 03:25:32;;;;;;;26.90;10.27;;;9.00;99.90;;;;;;4971950;28;20130;-63
2023/10/27 03:27:57;;;;;;;26.92;9.45;;;9.00;99.90;;;;;;4974281;28;20030;-63
2023/10/27 03:30:24;;;;;;;22.75;10.10;;;9.10;99.90;;;;;;4974909;28;20034;-63
2023/10/27 03:32:50;;;;;;;23.40;9.05;;;9.00;99.90;;;;;;4973328;28;20023;-63
2023/10/27 03:35:23;;;;;;;26.85;9.40;;;9.00;99.90;;;;;;4974887;28;20110;-63
2023/10/27 03:37:49;;;;;;;24.17;8.48;;;8.90;99.90;;;;;;4986222;28;20599;-63
2023/10/27 03:40:14;;;;;;;22.15;9.38;;;8.90;99.90;;;;;;4974551;28;20034;-63
2023/10/27 03:42:40;;;;;;;24.38;9.57;;;8.90;99.90;;;;;;4977671;28;20089;-63
2023/10/27 03:45:06;;;;;;;23.27;9.50;;;8.90;99.90;;;;;;4973460;28;20082;-63
2023/10/27 03:47:32;;;;;;;27.10;9.25;;;8.90;99.90;;;;;;4975074;28;20081;-61
2023/10/27 03:49:58;;;;;;;21.52;9.40;;;8.90;99.90;;;;;;4974253;28;20097;-61
2023/10/27 03:52:26;;;;;;;24.45;9.05;;;8.90;99.90;;;;;;4976994;28;20454;-61
2023/10/27 03:54:51;;;;;;;23.15;8.60;;;9.00;99.90;;;;;;4973160;28;20065;-61
2023/10/27 03:57:20;;;;;;;22.73;8.55;;;9.10;99.90;;;;;;4973222;28;20077;-61
2023/10/27 03:59:46;;;;;;;23.52;8.93;;;9.10;99.90;;;;;;4972740;28;20031;-61
2023/10/27 04:02:15;;;;;;;16.42;8.02;;;9.00;99.90;;;;;;4974216;28;20034;-61
2023/10/27 04:04:41;;;;;;;19.67;7.78;;;9.00;99.90;;;;;;4973873;28;20023;-61
2023/10/27 04:07:07;;;;;;;26.25;8.60;;;8.90;99.90;;;;;;4974497;28;20041;-61
2023/10/27 04:09:33;;;;;;;21.95;8.55;;;8.90;99.90;;;;;;4974349;28;20370;-61
2023/10/27 04:11:58;;;;;;;29.27;8.45;;;9.00;99.90;;;;;;4973509;28;20030;-61
2023/10/27 04:14:24;;;;;;;24.38;8.23;;;8.90;99.90;;;;;;4974765;28;20121;-61
2023/10/27 04:16:49;;;;;;;25.13;8.50;;;8.90;99.90;;;;;;4973492;28;20034;-61
2023/10/27 04:19:15;;;;;;;23.95;8.38;;;9.00;99.90;;;;;;4970696;28;20031;-61
2023/10/27 04:21:41;;;;;;;23.10;8.50;;;9.00;99.90;;;;;;4973563;28;20015;-61
2023/10/27 04:24:09;;;;;;;20.60;7.20;;;9.00;99.90;;;;;;4974393;28;20030;-61
2023/10/27 04:26:36;;;;;;;18.80;7.78;;;9.10;99.90;;;;;;4980057;28;20034;-61
2023/10/27 04:29:01;;;;;;;21.55;7.00;;;9.10;99.90;;;;;;4969339;28;20110;-60
2023/10/27 04:31:27;;;;;;;19.98;7.85;;;9.10;99.90;;;;;;4973836;28;20114;-60
2023/10/27 04:33:56;;;;;;;18.08;6.93;;;9.20;99.90;;;;;;4971526;28;20031;-60
2023/10/27 04:36:21;;;;;;;14.85;6.03;;;9.20;99.90;;;;;;4973789;28;20062;-60
2023/10/27 04:38:47;;;;;;;21.38;7.05;;;9.20;99.90;;;;;;4973515;28;20035;-60
2023/10/27 04:41:13;;;;;;;19.63;7.03;;;9.20;99.90;;;;;;4969246;28;20034;-60
2023/10/27 04:43:38;;;;;;;28.08;7.82;;;9.20;99.90;;;;;;4973143;28;20130;-60
2023/10/27 04:46:04;;;;;;;22.95;7.78;;;9.20;99.90;;;;;;4973642;28;20034;-60
2023/10/27 04:48:30;;;;;;;18.33;7.10;;;9.20;99.90;;;;;;4973855;28;20046;-60
2023/10/27 04:51:04;;;;;;;23.40;7.32;;;9.20;99.90;;;;;;4973183;28;20039;-60
2023/10/27 04:53:32;;;;;;;16.98;6.95;;;9.20;99.90;;;;;;4977040;28;20023;-60
2023/10/27 04:55:58;;;;;;;20.60;6.88;;;9.20;99.90;;;;;;4970427;28;20031;-62
2023/10/27 04:58:24;;;;;;;20.63;6.93;;;9.20;99.90;;;;;;4973756;28;20037;-62
2023/10/27 05:00:50;;;;;;;20.25;6.85;;;9.20;99.90;;;;;;4970536;28;20490;-62
2023/10/27 05:03:17;;;;;;;20.98;7.28;;;9.10;99.90;;;;;;4969298;28;20022;-63
2023/10/27 05:05:43;;;;;;;19.15;6.80;;;9.20;99.90;;;;;;4971898;28;20041;-63
2023/10/27 05:08:08;;;;;;;21.73;8.32;;;9.00;99.90;;;;;;4972419;28;20035;-63
2023/10/27 05:10:34;;;;;;;21.48;7.10;;;9.10;99.90;;;;;;4972707;28;20031;-62
2023/10/27 05:13:00;;;;;;;19.35;6.90;;;9.10;99.90;;;;;;4972188;28;20146;-62
2023/10/27 05:15:26;;;;;;;21.15;7.72;;;9.20;99.90;;;;;;4972548;28;20061;-63
2023/10/27 05:17:52;;;;;;;19.23;7.97;;;9.20;99.90;;;;;;4971862;28;20018;-63
2023/10/27 05:20:19;;;;;;;17.23;7.30;;;9.20;99.90;;;;;;4972813;28;20026;-62
2023/10/27 05:22:44;;;;;;;19.02;7.53;;;9.10;99.90;;;;;;4972095;28;20114;-63
2023/10/27 05:25:10;;;;;;;20.60;8.38;;;9.10;99.90;;;;;;4969608;28;20110;-63
2023/10/27 05:27:36;;;;;;;20.65;7.40;;;9.10;99.90;;;;;;4972397;28;20031;-62
2023/10/27 05:30:02;;;;;;;31.52;8.30;;;9.00;99.90;;;;;;4971829;28;20041;-63
2023/10/27 05:32:29;;;;;;;22.27;8.70;;;9.00;99.90;;;;;;4972635;28;20062;-63
2023/10/27 05:34:55;;;;;;;22.27;8.63;;;9.00;99.90;;;;;;4969517;28;20679;-63
2023/10/27 05:37:21;;;;;;;19.73;7.60;;;9.00;99.90;;;;;;4968437;28;20022;-63
2023/10/27 05:39:47;;;;;;;22.13;9.27;;;9.00;99.90;;;;;;4971829;28;20073;-63
2023/10/27 05:42:14;;;;;;;17.85;6.95;;;8.90;99.90;;;;;;4972122;28;20065;-63
2023/10/27 05:44:41;;;;;;;17.02;7.55;;;8.90;99.90;;;;;;4970342;28;20054;-62
2023/10/27 05:47:09;;;;;;;23.95;8.00;;;8.90;99.90;;;;;;4972307;28;20069;-62
2023/10/27 05:49:34;;;;;;;20.50;8.02;;;8.90;99.90;;;;;;4969881;28;20069;-64
2023/10/27 05:52:03;;;;;;;19.75;8.10;;;8.90;99.90;;;;;;4972558;28;20050;-62
2023/10/27 05:54:31;;;;;;;24.60;8.55;;;8.90;99.90;;;;;;4971764;28;20035;-63
2023/10/27 05:56:57;;;;;;;20.13;7.95;;;8.90;99.90;;;;;;4969433;28;20129;-63
2023/10/27 05:59:23;;;;;;;19.92;7.68;;;8.90;99.90;;;;;;4972481;28;20026;-63
2023/10/27 06:01:48;;;;;;;21.05;8.70;;;9.00;99.90;;;;;;4969792;28;20030;-62
2023/10/27 06:04:15;;;;;;;21.30;8.20;;;9.00;99.90;;;;;;4969360;28;20034;-63
2023/10/27 06:06:41;;;;;;;20.63;9.13;;;9.10;99.90;;;;;;4968764;28;20019;-62
2023/10/27 06:09:06;;;;;;;21.42;8.45;;;9.10;99.90;;;;;;4969215;28;20035;-62
2023/10/27 06:11:35;;;;;;;20.65;8.45;;;9.10;99.90;;;;;;4968383;28;20110;-62
2023/10/27 06:14:02;;;;;;;23.08;8.55;;;9.00;99.90;;;;;;4970354;28;20073;-62
2023/10/27 06:16:28;;;;;;;19.35;8.73;;;9.00;99.90;;;;;;4974413;28;20030;-63
2023/10/27 06:18:54;;;;;;;22.30;8.35;;;9.00;99.90;;;;;;4974716;28;20257;-64
2023/10/27 06:21:19;;;;;;;20.88;8.05;;;9.00;99.90;;;;;;4980901;28;20153;-64
2023/10/27 06:23:45;;;;;;;19.25;8.73;;;9.00;99.90;;;;;;4996466;28;20054;-64
2023/10/27 06:26:11;;;;;;;22.35;8.20;;;9.00;99.90;;;;;;4980061;28;20023;-64
2023/10/27 06:28:36;;;;;;;23.13;7.95;;;9.10;99.90;;;;;;4980519;28;20039;-64
2023/10/27 06:31:03;;;;;;;18.58;8.00;;;9.00;99.90;;;;;;4980080;28;20056;-64
2023/10/27 06:33:32;;;;;;;23.38;8.13;;;9.00;99.90;;;;;;4986575;28;20093;-64
2023/10/27 06:35:59;;;;;;;23.13;8.50;;;9.00;99.90;;;;;;4970534;28;20086;-64
2023/10/27 06:38:25;;;;;;;23.67;8.55;;;9.00;99.90;;;;;;4974540;28;20418;-64
2023/10/27 06:40:50;;;;;;;23.20;9.05;;;9.10;99.90;;;;;;4975906;28;20106;-64
2023/10/27 06:43:17;;;;;;;22.55;8.80;;;9.10;99.90;;;;;;4978714;28;20035;-64
2023/10/27 06:45:42;;;;;;;23.55;9.77;;;9.10;99.90;;;;;;4982825;28;20054;-64
2023/10/27 06:48:09;;;;;;;23.08;8.05;;;;;;;;;;5000603;28;20090;-64
2023/10/27 06:50:35;;;;;;;24.67;8.15;;;9.10;99.90;;;;;;4979528;28;20062;-64
2023/10/27 06:53:00;;;;;;;22.20;7.28;;;9.10;99.90;;;;;;4985406;28;20513;-64
2023/10/27 06:55:26;;;;;;;18.52;7.72;;;9.10;99.90;;;;;;4981435;28;20042;-64
2023/10/27 06:57:51;;;;;;;20.70;7.85;;;9.20;99.90;;;;;;4999434;28;20355;-64
2023/10/27 07:00:17;;;;;;;20.23;8.32;;;9.30;99.90;;;;;;4984625;28;20019;-64
2023/10/27 07:02:44;;;;;;;24.60;7.75;;;;;;;;;;4986941;28;20031;-64
2023/10/27 07:05:13;;;;;;;18.80;7.07;;;9.30;99.90;;;;;;4979863;28;20494;-65
2023/10/27 07:07:39;;;;;;;24.67;7.55;;;;;;;;;;4965877;28;20130;-65
2023/10/27 07:10:13;;;;;;;22.80;7.50;;;9.30;99.90;;;;;;4964590;28;20069;-64
2023/10/27 07:12:38;;;;;;;18.77;7.63;;;9.30;99.90;;;;;;4971121;28;20130;-64
2023/10/27 07:15:04;;;;;;;21.95;7.65;;;9.20;99.90;;;;;;4969248;28;20226;-64
2023/10/27 07:17:30;;;;;;;21.85;7.90;;;9.30;99.90;;;;;;4962442;28;20029;-64
2023/10/27 07:19:55;;;;;;;20.00;7.50;;;9.30;99.90;;;;;;4987612;28;20404;-64
2023/10/27 07:22:21;;;;;;;24.35;8.38;;;9.30;99.90;;;;;;4967634;28;20525;-64
2023/10/27 07:24:47;;;;;;;20.00;7.72;;;9.30;99.90;;;;;;4965109;28;20115;-65
2023/10/27 07:27:13;;;;;;;25.50;8.00;;;9.40;99.90;;;;;;4967074;28;20057;-63
2023/10/27 07:29:39;;;;;;;21.70;7.07;;;9.40;99.90;;;;;;4965492;28;20045;-63
2023/10/27 07:32:05;;;;;;;21.95;8.30;;;9.40;99.90;;;;;;4959622;28;20023;-63
2023/10/27 07:34:31;;;;;;;19.98;7.38;;;9.40;99.90;;;;;;4963685;28;20053;-64
2023/10/27 07:36:56;;;;;;;23.83;8.57;;;9.40;99.90;;;;;;4964893;28;20486;-63
2023/10/27 07:39:22;;;;;;;29.95;7.88;;;9.40;99.90;;;;;;4965737;28;20078;-63
2023/10/27 07:41:52;;;;;;;22.95;8.70;;;9.40;99.90;;;;;;4967735;28;20037;-63
2023/10/27 07:44:18;;;;;;;24.83;8.15;;;9.40;99.90;;;;;;4968007;28;20039;-63
2023/10/27 07:46:44;;;;;;;20.23;7.85;;;9.40;99.90;;;;;;4967873;28;20054;-63
2023/10/27 07:49:13;;;;;;;24.75;7.85;;;9.50;99.90;;;;;;4964475;28;20049;-63
2023/10/27 07:51:38;;;;;;;23.98;8.45;;;9.50;99.90;;;;;;4970413;28;20032;-63
2023/10/27 07:54:04;;;;;;;18.23;7.55;;;9.40;99.90;;;;;;4967181;28;20046;-63
2023/10/27 07:56:32;;;;;;;24.55;7.82;;;9.50;99.90;;;;;;4967487;28;20331;-63
2023/10/27 07:58:58;;;;;;;23.10;8.35;;;9.50;99.90;;;;;;4968048;28;20065;-63
2023/10/27 08:01:24;;;;;;;18.90;7.18;;;9.60;99.90;;;;;;4969045;28;20031;-63
2023/10/27 08:03:50;;;;;;;17.77;7.15;;;9.60;99.90;;;;;;4968541;28;20552;-63
2023/10/27 08:06:18;;;;;;;19.98;7.97;;;9.60;99.90;;;;;;4964456;28;20090;-63
2023/10/27 08:08:44;;;;;;;23.60;7.65;;;9.60;99.90;;;;;;4971510;28;20042;-63
2023/10/27 08:11:21;;;;;;;22.10;8.00;;;9.70;99.90;;;;;;4972444;28;20019;-63
2023/10/27 08:13:47;;;;;;;19.67;7.28;;;9.80;99.90;;;;;;4969771;28;20023;-63
2023/10/27 08:16:13;;;;;;;16.08;8.15;;;9.70;99.90;;;;;;4972023;28;20050;-64
2023/10/27 08:18:39;;;;;;;25.05;8.05;;;9.70;99.90;;;;;;4966850;28;20016;-63
2023/10/27 08:21:08;;;;;;;18.52;8.02;;;9.70;99.90;;;;;;4970377;28;20059;-63
2023/10/27 08:23:33;;;;;;;19.15;7.38;;;9.70;99.90;;;;;;4987356;28;20037;-63
2023/10/27 08:26:04;;;;;;;19.65;6.85;;;9.80;99.90;;;;;;4970503;28;20123;-63
2023/10/27 08:28:30;;;;;;;21.45;7.38;;;9.70;99.90;;;;;;4972534;28;20493;-63
2023/10/27 08:30:56;;;;;;;19.48;7.72;;;9.70;99.90;;;;;;4970960;28;20153;-63
2023/10/27 08:33:22;;;;;;;21.30;8.20;;;9.70;99.90;;;;;;4970792;28;20415;-63
2023/10/27 08:35:48;;;;;;;16.70;6.82;;;9.80;99.90;;;;;;4965903;28;20027;-63
2023/10/27 08:38:14;;;;;;;18.17;7.63;;;9.80;99.90;;;;;;4969509;28;20029;-63
2023/10/27 08:40:39;;;;;;;21.38;6.75;;;9.80;99.90;;;;;;4967307;28;20743;-63
2023/10/27 08:43:05;;;;;;;17.23;6.80;;;9.90;99.90;;;;;;4966025;28;20121;-63
2023/10/27 08:45:35;;;;;;;20.40;6.72;;;9.90;99.90;;;;;;4967798;28;20058;-63
2023/10/27 08:48:01;;;;;;;;;;;9.90;99.90;;;;;;4967233;28;20030;-63
2023/10/27 08:50:27;;;;;;;17.25;6.90;;;9.90;99.90;;;;;;4970574;28;20396;-63
2023/10/27 08:52:53;;;;;;;19.20;6.97;;;9.90;99.90;;;;;;4969751;28;20042;-63
2023/10/27 08:55:20;;;;;;;19.10;7.18;;;10.00;99.90;;;;;;4966213;28;20027;-63
2023/10/27 08:57:46;;;;;;;15.75;6.70;;;10.00;99.90;;;;;;4967251;28;20118;-63
2023/10/27 09:00:12;;;;;;;16.17;6.93;;;10.10;99.90;;;;;;4966896;28;20106;-63
2023/10/27 09:02:38;;;;;;;20.13;6.38;;;10.10;99.90;;;;;;4964339;28;20042;-63
2023/10/27 09:05:09;;;;;;;15.30;5.93;;;10.20;99.90;;;;;;4964205;28;20082;-63
2023/10/27 09:07:38;;;;;;;17.13;6.55;;;10.20;99.90;;;;;;4967376;28;20031;-63
2023/10/27 09:10:06;;;;;;;18.08;5.60;;;10.30;99.90;;;;;;4971124;28;20041;-63
2023/10/27 09:12:36;;;;;;;10.43;5.15;;;10.30;99.90;;;;;;4981127;28;20026;-63
2023/10/27 09:15:06;;;;;;;15.32;5.70;;;10.30;99.90;;;;;;4971407;28;20031;-63
2023/10/27 09:17:56;;;;;;;10.38;4.20;;;10.40;99.90;;;;;;4971893;28;20023;-63
2023/10/27 09:20:23;;;;;;;;;;;10.40;99.90;;;;;;4971329;28;20459;-63
2023/10/27 09:23:00;;;;;;;11.43;4.60;;;10.40;99.90;;;;;;4968020;28;19996;-63
2023/10/27 09:25:33;;;;;;;13.48;3.80;;;10.50;99.90;;;;;;4968494;28;20069;-63
2023/10/27 09:28:05;;;;;;;10.45;4.07;;;10.50;99.90;;;;;;4967341;28;20035;-63
2023/10/27 09:30:32;;;;;;;9.82;4.13;;;10.60;99.90;;;;;;4970028;28;20056;-63
2023/10/27 09:33:20;;;;;;;14.73;4.32;;;10.70;99.90;;;;;;4970474;28;20635;-64
2023/10/27 09:35:48;;;;;;;10.68;4.13;;;10.80;99.90;;;;;;4973672;28;20034;-62
2023/10/27 09:38:17;;;;;;;14.18;4.22;;;10.90;99.90;;;;;;4969227;28;20474;-62
2023/10/27 09:40:45;;;;;;;8.20;3.33;;;10.90;99.90;;;;;;4958488;28;20042;-62
2023/10/27 09:43:19;;;;;;;11.57;3.05;;;11.10;99.90;;;;;;4969140;28;20144;-62
2023/10/27 09:45:51;;;;;;;7.97;3.10;;;11.20;99.90;;;;;;4975297;28;20059;-62
2023/10/27 09:48:26;;;;;;;9.13;3.15;;;11.20;99.90;;;;;;4970736;28;20419;-63
2023/10/27 09:51:02;;;;;;;7.28;2.60;;;11.30;99.90;;;;;;4970584;28;20103;-63
2023/10/27 09:53:28;;;;;;;7.45;2.60;;;11.30;99.90;;;;;;4971573;28;20023;-63
2023/10/27 09:55:57;;;;;;;6.50;2.67;;;11.40;99.90;;;;;;4968649;28;20035;-63
2023/10/27 09:58:24;;;;;;;7.03;2.30;;;11.40;99.90;;;;;;4971043;28;20124;-63
2023/10/27 10:00:50;;;;;;;8.68;2.53;;;11.50;99.90;;;;;;4970809;28;20170;-63
2023/10/27 10:03:17;;;;;;;7.38;2.75;;;11.50;99.90;;;;;;4970069;28;20109;-63
2023/10/27 10:06:12;;;;;;;8.60;2.80;;;11.40;99.90;;;;;;4970779;28;20482;-63
2023/10/27 10:08:38;;;;;;;6.78;2.65;;;11.40;99.90;;;;;;4964651;28;20502;-63
2023/10/27 10:11:15;;;;;;;7.85;2.17;;;12.20;99.90;;;;;;4967191;28;20481;-63
2023/10/27 10:13:44;;;;;;;6.50;1.80;;;11.40;99.90;;;;;;4966779;28;20035;-63
2023/10/27 10:16:11;;;;;;;4.57;1.40;;;11.40;99.90;;;;;;4967896;28;20035;-63
2023/10/27 10:18:37;;;;;;;3.55;1.20;;;11.50;99.90;;;;;;4962524;28;20015;-63
2023/10/27 10:21:06;;;;;;;3.97;1.50;;;11.50;99.90;;;;;;4965249;28;20183;-63
2023/10/27 10:23:40;;;;;;;5.45;1.48;;;11.60;99.90;;;;;;4970039;28;20090;-63
2023/10/27 10:26:05;;;;;;;4.63;1.52;;;11.70;99.90;;;;;;4967947;28;20027;-63
2023/10/27 10:28:34;;;;;;;4.35;1.50;;;11.80;99.90;;;;;;4970034;28;20573;-63
2023/10/27 10:31:16;;;;;;;5.50;2.03;;;11.80;99.90;;;;;;4969575;28;20030;-63
2023/10/27 10:33:46;;;;;;;4.75;1.70;;;11.70;99.90;;;;;;4968565;28;20039;-63
2023/10/27 10:36:15;;;;;;;5.65;1.95;;;11.80;99.90;;;;;;4969623;28;20058;-63
2023/10/27 10:38:43;;;;;;;4.60;1.85;;;11.80;99.90;;;;;;4970364;28;20054;-63
2023/10/27 10:41:09;;;;;;;4.75;1.90;;;11.80;99.90;;;;;;4969270;28;20015;-63
2023/10/27 10:43:38;;;;;;;6.68;2.30;;;11.80;99.90;;;;;;4970182;28;20031;-63
2023/10/27 10:46:05;;;;;;;5.80;2.00;;;11.80;99.90;;;;;;4968077;28;20141;-63
2023/10/27 10:48:32;;;;;;;5.45;1.98;;;11.80;99.90;;;;;;4969099;28;20086;-63
2023/10/27 10:51:14;;;;;;;4.78;1.92;;;11.90;99.90;;;;;;4969234;28;20110;-63
2023/10/27 10:53:39;;;;;;;5.72;2.03;;;11.90;99.90;;;;;;4966347;28;20205;-63
2023/10/27 10:56:05;;;;;;;6.38;2.00;;;11.90;99.90;;;;;;4967759;28;20146;-63
2023/10/27 10:58:40;;;;;;;6.97;2.10;;;11.90;99.90;;;;;;4969883;28;20030;-63
2023/10/27 11:01:19;;;;;;;7.53;2.00;;;11.90;99.90;;;;;;4963298;28;20048;-65
2023/10/27 11:03:53;;;;;;;5.50;1.98;;;11.90;99.90;;;;;;4969101;28;20049;-63
2023/10/27 11:06:20;;;;;;;6.57;2.10;;;11.90;99.90;;;;;;4965535;28;20102;-63
2023/10/27 11:08:46;;;;;;;8.05;2.40;;;11.80;99.90;;;;;;4969221;28;20138;-63
2023/10/27 11:11:16;;;;;;;6.20;2.10;;;11.70;99.90;;;;;;4968559;28;20037;-63
2023/10/27 11:13:47;;;;;;;6.38;2.30;;;11.70;99.90;;;;;;4965623;28;20101;-63
2023/10/27 11:16:16;;;;;;;6.43;2.45;;;11.70;99.90;;;;;;4968311;28;20455;-63
2023/10/27 11:18:47;;;;;;;5.77;2.33;;;11.70;99.90;;;;;;4968805;28;20657;-63
2023/10/27 11:21:18;;;;;;;5.80;2.30;;;11.80;99.90;;;;;;4961574;28;20080;-64
2023/10/27 11:23:44;;;;;;;5.47;2.45;;;11.80;99.90;;;;;;4969392;28;20035;-63
2023/10/27 11:26:10;;;;;;;7.15;2.50;;;11.80;99.90;;;;;;4967587;28;20126;-63
2023/10/27 11:28:40;;;;;;;6.95;2.30;;;11.80;99.90;;;;;;4969643;28;20030;-64
2023/10/27 11:31:08;;;;;;;7.07;2.80;;;11.90;99.90;;;;;;4965467;28;20030;-63
2023/10/27 11:34:07;;;;;;;6.88;2.58;;;12.00;99.90;;;;;;4982367;28;20043;-63
2023/10/27 11:36:35;;;;;;;6.97;2.60;;;12.20;99.90;;;;;;4967950;28;20027;-63
2023/10/27 11:39:23;;;;;;;7.22;2.72;;;12.30;99.90;;;;;;4969089;28;20526;-64
2023/10/27 11:41:52;;;;;;;6.60;2.75;;;12.50;99.90;;;;;;4981698;28;20030;-64
2023/10/27 11:44:18;;;;;;;6.65;2.80;;;12.80;99.90;;;;;;4970038;28;20569;-65
2023/10/27 11:46:48;;;;;;;6.95;2.55;;;13.10;99.90;;;;;;4970744;28;20031;-64
2023/10/27 11:49:14;;;;;;;7.27;3.00;;;13.40;99.90;;;;;;4965657;28;20039;-64
2023/10/27 11:51:42;;;;;;;6.90;2.67;;;13.40;99.90;;;;;;4965601;28;20297;-64
2023/10/27 11:54:08;;;;;;;9.32;2.88;;;13.50;99.90;;;;;;4963834;28;20382;-64
2023/10/27 11:56:34;;;;;;;6.85;3.00;;;13.50;99.90;;;;;;4966340;28;20038;-64
2023/10/27 11:58:59;;;;;;;5.97;2.22;;;13.40;99.90;;;;;;4970042;28;20033;-63
2023/10/27 12:01:25;;;;;;;8.18;2.67;;;13.30;99.90;;;;;;4968990;28;20459;-63
2023/10/27 12:03:50;;;;;;;6.10;2.25;;;13.10;99.90;;;;;;4970762;28;20027;-64
2023/10/27 12:06:18;;;;;;;7.22;2.38;;;13.00;99.90;;;;;;4969942;28;20062;-65
2023/10/27 12:08:44;;;;;;;7.60;3.50;;;12.90;99.90;;;;;;4985686;28;20030;-65
2023/10/27 12:11:10;;;;;;;6.85;2.70;;;12.60;99.90;;;;;;4970013;28;20093;-65
2023/10/27 12:13:35;;;;;;;7.95;3.05;;;12.50;99.90;;;;;;4972075;28;20066;-65
2023/10/27 12:16:01;;;;;;;7.03;2.47;;;12.50;99.90;;;;;;4969870;28;20081;-65
2023/10/27 12:18:27;;;;;;;7.38;2.67;;;12.70;99.90;;;;;;4965790;28;20043;-66
2023/10/27 12:20:55;;;;;;;6.05;2.42;;;12.90;99.90;;;;;;4984401;28;20038;-65
2023/10/27 12:23:20;;;;;;;9.82;2.75;;;13.00;99.90;;;;;;4966510;28;20041;-65
2023/10/27 12:25:46;;;;;;;7.13;2.65;;;12.90;99.90;;;;;;4968756;28;20039;-65
2023/10/27 12:28:12;;;;;;;7.47;2.95;;;12.80;99.90;;;;;;4970188;28;20035;-65
2023/10/27 12:30:38;;;;;;;7.35;3.22;;;12.60;99.90;;;;;;4970445;28;20031;-65
2023/10/27 12:33:04;;;;;;;7.10;3.10;;;12.50;99.90;;;;;;4968667;28;20065;-65
2023/10/27 12:35:30;;;;;;;8.10;3.10;;;12.50;99.90;;;;;;4984505;28;20030;-65
2023/10/27 12:37:56;;;;;;;7.20;2.65;;;12.40;99.90;;;;;;4983825;28;20118;-65
2023/10/27 12:40:25;;;;;;;7.82;3.40;;;12.30;99.90;;;;;;4970032;28;20101;-65
2023/10/27 12:42:51;;;;;;;7.85;3.05;;;12.10;99.90;;;;;;4984704;28;20050;-65
2023/10/27 12:45:17;;;;;;;7.53;3.30;;;12.00;99.90;;;;;;4969210;28;20154;-65